sensor_id;sensor_type;location;lat;lon;timestamp;P1;durP1;ratioP1;P2;durP2;ratioP2
3941;SDS011;1985;48.592;8.850;2024-01-10T00:01:22;28.80;;;11.57;;
3941;SDS011;1985;48.592;8.850;2024-01-10T00:03:51;32.03;;;13.20;;
3941;SDS011;1985;48.592;8.850;2024-01-10T00:06:18;28.88;;;12.13;;
3941;SDS011;1985;48.592;8.850;2024-01-10T00:08:44;30.63;;;13.00;;
3941;SDS011;1985;48.592;8.850;2024-01-10T00:11:10;29.13;;;13.18;;
3941;SDS011;1985;48.592;8.850;2024-01-10T00:13:35;25.40;;;11.00;;
3941;SDS011;1985;48.592;8.850;2024-01-10T00:16:01;28.63;;;12.10;;
3941;SDS011;1985;48.592;8.850;2024-01-10T00:18:26;29.30;;;11.80;;
3941;SDS011;1985;48.592;8.850;2024-01-10T00:20:52;28.30;;;11.47;;
3941;SDS011;1985;48.592;8.850;2024-01-10T00:23:21;24.83;;;11.40;;
3941;SDS011;1985;48.592;8.850;2024-01-10T00:25:47;27.70;;;12.83;;
3941;SDS011;1985;48.592;8.850;2024-01-10T00:28:13;29.38;;;11.68;;
3941;SDS011;1985;48.592;8.850;2024-01-10T00:30:41;23.58;;;10.00;;
3941;SDS011;1985;48.592;8.850;2024-01-10T00:33:07;25.30;;;11.47;;
3941;SDS011;1985;48.592;8.850;2024-01-10T00:35:32;26.97;;;10.70;;
3941;SDS011;1985;48.592;8.850;2024-01-10T00:37:58;25.67;;;9.60;;
3941;SDS011;1985;48.592;8.850;2024-01-10T00:40:24;22.67;;;8.77;;
3941;SDS011;1985;48.592;8.850;2024-01-10T00:42:50;22.13;;;9.47;;
3941;SDS011;1985;48.592;8.850;2024-01-10T00:45:16;23.17;;;10.27;;
3941;SDS011;1985;48.592;8.850;2024-01-10T00:47:42;25.50;;;11.25;;
3941;SDS011;1985;48.592;8.850;2024-01-10T00:50:08;23.02;;;9.43;;
3941;SDS011;1985;48.592;8.850;2024-01-10T00:52:34;23.05;;;9.70;;
3941;SDS011;1985;48.592;8.850;2024-01-10T00:55:00;24.00;;;10.75;;
3941;SDS011;1985;48.592;8.850;2024-01-10T00:57:25;23.02;;;9.43;;
3941;SDS011;1985;48.592;8.850;2024-01-10T00:59:51;24.45;;;10.40;;
3941;SDS011;1985;48.592;8.850;2024-01-10T01:02:16;24.48;;;10.43;;
3941;SDS011;1985;48.592;8.850;2024-01-10T01:04:42;22.35;;;9.57;;
3941;SDS011;1985;48.592;8.850;2024-01-10T01:07:08;24.52;;;9.93;;
3941;SDS011;1985;48.592;8.850;2024-01-10T01:09:34;24.55;;;10.00;;
3941;SDS011;1985;48.592;8.850;2024-01-10T01:12:00;25.98;;;10.35;;
3941;SDS011;1985;48.592;8.850;2024-01-10T01:14:25;28.80;;;9.80;;
3941;SDS011;1985;48.592;8.850;2024-01-10T01:16:51;24.88;;;10.43;;
3941;SDS011;1985;48.592;8.850;2024-01-10T01:19:17;26.87;;;11.20;;
3941;SDS011;1985;48.592;8.850;2024-01-10T01:21:43;22.30;;;10.17;;
3941;SDS011;1985;48.592;8.850;2024-01-10T01:24:08;23.77;;;9.73;;
3941;SDS011;1985;48.592;8.850;2024-01-10T01:26:34;27.27;;;10.97;;
3941;SDS011;1985;48.592;8.850;2024-01-10T01:29:00;23.50;;;9.93;;
3941;SDS011;1985;48.592;8.850;2024-01-10T01:31:25;24.13;;;10.80;;
3941;SDS011;1985;48.592;8.850;2024-01-10T01:33:51;22.53;;;10.40;;
3941;SDS011;1985;48.592;8.850;2024-01-10T01:36:17;24.10;;;9.88;;
3941;SDS011;1985;48.592;8.850;2024-01-10T01:38:42;24.13;;;10.85;;
3941;SDS011;1985;48.592;8.850;2024-01-10T01:41:08;23.92;;;9.73;;
3941;SDS011;1985;48.592;8.850;2024-01-10T01:43:34;22.35;;;9.48;;
3941;SDS011;1985;48.592;8.850;2024-01-10T01:46:00;24.50;;;10.48;;
3941;SDS011;1985;48.592;8.850;2024-01-10T01:48:27;22.58;;;9.80;;
3941;SDS011;1985;48.592;8.850;2024-01-10T01:50:54;25.10;;;10.45;;
3941;SDS011;1985;48.592;8.850;2024-01-10T01:53:23;26.38;;;10.48;;
3941;SDS011;1985;48.592;8.850;2024-01-10T01:55:49;24.10;;;10.10;;
3941;SDS011;1985;48.592;8.850;2024-01-10T01:58:15;24.83;;;10.63;;
3941;SDS011;1985;48.592;8.850;2024-01-10T02:00:41;22.50;;;9.03;;
3941;SDS011;1985;48.592;8.850;2024-01-10T02:03:08;24.10;;;10.10;;
3941;SDS011;1985;48.592;8.850;2024-01-10T02:05:35;25.58;;;10.00;;
3941;SDS011;1985;48.592;8.850;2024-01-10T02:08:01;25.17;;;10.07;;
3941;SDS011;1985;48.592;8.850;2024-01-10T02:10:27;21.73;;;9.90;;
3941;SDS011;1985;48.592;8.850;2024-01-10T02:12:52;25.10;;;9.90;;
3941;SDS011;1985;48.592;8.850;2024-01-10T02:15:18;27.65;;;11.18;;
3941;SDS011;1985;48.592;8.850;2024-01-10T02:17:44;23.63;;;10.45;;
3941;SDS011;1985;48.592;8.850;2024-01-10T02:22:36;25.53;;;10.60;;
3941;SDS011;1985;48.592;8.850;2024-01-10T02:25:03;27.07;;;11.20;;
3941;SDS011;1985;48.592;8.850;2024-01-10T02:27:33;24.52;;;11.02;;
3941;SDS011;1985;48.592;8.850;2024-01-10T02:30:05;28.73;;;11.05;;
3941;SDS011;1985;48.592;8.850;2024-01-10T02:32:32;26.10;;;10.80;;
3941;SDS011;1985;48.592;8.850;2024-01-10T02:35:05;24.63;;;10.50;;
3941;SDS011;1985;48.592;8.850;2024-01-10T02:37:32;23.30;;;10.52;;
3941;SDS011;1985;48.592;8.850;2024-01-10T02:39:57;24.10;;;11.13;;
3941;SDS011;1985;48.592;8.850;2024-01-10T02:42:23;22.40;;;10.43;;
3941;SDS011;1985;48.592;8.850;2024-01-10T02:44:49;26.38;;;10.30;;
3941;SDS011;1985;48.592;8.850;2024-01-10T02:47:14;25.60;;;11.00;;
3941;SDS011;1985;48.592;8.850;2024-01-10T02:49:40;27.55;;;10.93;;
3941;SDS011;1985;48.592;8.850;2024-01-10T02:52:06;30.10;;;10.50;;
3941;SDS011;1985;48.592;8.850;2024-01-10T02:54:31;29.97;;;11.77;;
3941;SDS011;1985;48.592;8.850;2024-01-10T02:56:57;26.10;;;10.57;;
3941;SDS011;1985;48.592;8.850;2024-01-10T02:59:23;21.77;;;9.80;;
3941;SDS011;1985;48.592;8.850;2024-01-10T03:01:48;24.05;;;10.68;;
3941;SDS011;1985;48.592;8.850;2024-01-10T03:04:14;22.42;;;10.35;;
3941;SDS011;1985;48.592;8.850;2024-01-10T03:06:39;26.13;;;10.43;;
3941;SDS011;1985;48.592;8.850;2024-01-10T03:09:05;25.00;;;11.30;;
3941;SDS011;1985;48.592;8.850;2024-01-10T03:11:31;25.27;;;11.53;;
3941;SDS011;1985;48.592;8.850;2024-01-10T03:14:08;31.10;;;12.17;;
3941;SDS011;1985;48.592;8.850;2024-01-10T03:16:34;24.17;;;10.70;;
3941;SDS011;1985;48.592;8.850;2024-01-10T03:19:00;32.28;;;12.60;;
3941;SDS011;1985;48.592;8.850;2024-01-10T03:21:26;26.38;;;11.32;;
3941;SDS011;1985;48.592;8.850;2024-01-10T03:23:55;24.45;;;10.75;;
3941;SDS011;1985;48.592;8.850;2024-01-10T03:26:22;27.00;;;11.40;;
3941;SDS011;1985;48.592;8.850;2024-01-10T03:28:51;27.70;;;11.38;;
3941;SDS011;1985;48.592;8.850;2024-01-10T03:31:17;26.85;;;11.27;;
3941;SDS011;1985;48.592;8.850;2024-01-10T03:33:43;28.30;;;13.05;;
3941;SDS011;1985;48.592;8.850;2024-01-10T03:36:10;27.27;;;12.90;;
3941;SDS011;1985;48.592;8.850;2024-01-10T03:38:38;27.60;;;11.80;;
3941;SDS011;1985;48.592;8.850;2024-01-10T03:41:04;25.80;;;11.90;;
3941;SDS011;1985;48.592;8.850;2024-01-10T03:43:29;25.87;;;11.97;;
3941;SDS011;1985;48.592;8.850;2024-01-10T03:45:56;29.67;;;12.30;;
3941;SDS011;1985;48.592;8.850;2024-01-10T03:48:22;28.58;;;11.93;;
3941;SDS011;1985;48.592;8.850;2024-01-10T03:50:48;27.20;;;12.97;;
3941;SDS011;1985;48.592;8.850;2024-01-10T03:53:14;29.73;;;12.50;;
3941;SDS011;1985;48.592;8.850;2024-01-10T03:55:39;31.80;;;13.33;;
3941;SDS011;1985;48.592;8.850;2024-01-10T03:58:05;29.93;;;13.07;;
3941;SDS011;1985;48.592;8.850;2024-01-10T04:00:31;27.10;;;11.30;;
3941;SDS011;1985;48.592;8.850;2024-01-10T04:02:57;27.02;;;12.40;;
3941;SDS011;1985;48.592;8.850;2024-01-10T04:05:22;29.27;;;12.30;;
3941;SDS011;1985;48.592;8.850;2024-01-10T04:07:50;32.50;;;12.70;;
3941;SDS011;1985;48.592;8.850;2024-01-10T04:10:16;28.90;;;12.98;;
3941;SDS011;1985;48.592;8.850;2024-01-10T04:12:42;28.20;;;12.52;;
3941;SDS011;1985;48.592;8.850;2024-01-10T04:15:09;27.20;;;12.25;;
3941;SDS011;1985;48.592;8.850;2024-01-10T04:17:35;27.35;;;11.77;;
3941;SDS011;1985;48.592;8.850;2024-01-10T04:20:01;27.38;;;11.65;;
3941;SDS011;1985;48.592;8.850;2024-01-10T04:22:28;24.25;;;11.55;;
3941;SDS011;1985;48.592;8.850;2024-01-10T04:24:55;24.93;;;11.40;;
3941;SDS011;1985;48.592;8.850;2024-01-10T04:27:22;32.35;;;13.15;;
3941;SDS011;1985;48.592;8.850;2024-01-10T04:29:48;70.47;;;28.00;;
3941;SDS011;1985;48.592;8.850;2024-01-10T04:32:13;57.63;;;23.17;;
3941;SDS011;1985;48.592;8.850;2024-01-10T04:34:39;35.28;;;15.63;;
3941;SDS011;1985;48.592;8.850;2024-01-10T04:37:05;32.15;;;11.55;;
3941;SDS011;1985;48.592;8.850;2024-01-10T04:39:32;28.77;;;11.18;;
3941;SDS011;1985;48.592;8.850;2024-01-10T04:41:58;27.65;;;11.15;;
3941;SDS011;1985;48.592;8.850;2024-01-10T04:44:24;30.77;;;11.25;;
3941;SDS011;1985;48.592;8.850;2024-01-10T04:46:49;25.50;;;11.13;;
3941;SDS011;1985;48.592;8.850;2024-01-10T04:49:15;25.67;;;11.17;;
3941;SDS011;1985;48.592;8.850;2024-01-10T04:51:41;28.30;;;12.40;;
3941;SDS011;1985;48.592;8.850;2024-01-10T04:54:06;24.47;;;10.43;;
3941;SDS011;1985;48.592;8.850;2024-01-10T04:56:32;28.93;;;11.10;;
3941;SDS011;1985;48.592;8.850;2024-01-10T04:58:58;27.02;;;11.00;;
3941;SDS011;1985;48.592;8.850;2024-01-10T05:01:23;26.45;;;11.77;;
3941;SDS011;1985;48.592;8.850;2024-01-10T05:03:49;25.55;;;10.52;;
3941;SDS011;1985;48.592;8.850;2024-01-10T05:06:15;25.50;;;10.10;;
3941;SDS011;1985;48.592;8.850;2024-01-10T05:08:40;22.57;;;10.33;;
3941;SDS011;1985;48.592;8.850;2024-01-10T05:11:06;25.37;;;11.10;;
3941;SDS011;1985;48.592;8.850;2024-01-10T05:13:31;26.03;;;11.30;;
3941;SDS011;1985;48.592;8.850;2024-01-10T05:15:57;27.20;;;10.43;;
3941;SDS011;1985;48.592;8.850;2024-01-10T05:18:23;27.50;;;11.30;;
3941;SDS011;1985;48.592;8.850;2024-01-10T05:20:49;27.95;;;10.90;;
3941;SDS011;1985;48.592;8.850;2024-01-10T05:23:15;32.60;;;12.43;;
3941;SDS011;1985;48.592;8.850;2024-01-10T05:25:40;23.35;;;10.40;;
3941;SDS011;1985;48.592;8.850;2024-01-10T05:28:06;26.60;;;11.63;;
3941;SDS011;1985;48.592;8.850;2024-01-10T05:30:31;26.08;;;11.43;;
3941;SDS011;1985;48.592;8.850;2024-01-10T05:32:57;25.50;;;11.47;;
3941;SDS011;1985;48.592;8.850;2024-01-10T05:35:26;25.15;;;11.13;;
3941;SDS011;1985;48.592;8.850;2024-01-10T05:37:52;28.35;;;10.63;;
3941;SDS011;1985;48.592;8.850;2024-01-10T05:40:18;26.98;;;11.70;;
3941;SDS011;1985;48.592;8.850;2024-01-10T05:42:44;27.95;;;11.65;;
3941;SDS011;1985;48.592;8.850;2024-01-10T05:45:10;25.70;;;11.20;;
3941;SDS011;1985;48.592;8.850;2024-01-10T05:47:36;31.90;;;13.17;;
3941;SDS011;1985;48.592;8.850;2024-01-10T05:50:02;37.50;;;13.77;;
3941;SDS011;1985;48.592;8.850;2024-01-10T05:52:31;30.88;;;13.25;;
3941;SDS011;1985;48.592;8.850;2024-01-10T05:54:58;31.60;;;15.10;;
3941;SDS011;1985;48.592;8.850;2024-01-10T05:57:24;33.22;;;13.80;;
3941;SDS011;1985;48.592;8.850;2024-01-10T05:59:49;31.80;;;14.38;;
3941;SDS011;1985;48.592;8.850;2024-01-10T06:02:17;31.15;;;13.50;;
3941;SDS011;1985;48.592;8.850;2024-01-10T06:04:43;44.80;;;13.68;;
3941;SDS011;1985;48.592;8.850;2024-01-10T06:07:08;28.50;;;12.83;;
3941;SDS011;1985;48.592;8.850;2024-01-10T06:09:34;28.73;;;13.10;;
3941;SDS011;1985;48.592;8.850;2024-01-10T06:12:00;32.37;;;12.50;;
3941;SDS011;1985;48.592;8.850;2024-01-10T06:14:25;28.77;;;12.77;;
3941;SDS011;1985;48.592;8.850;2024-01-10T06:16:51;28.80;;;11.30;;
3941;SDS011;1985;48.592;8.850;2024-01-10T06:19:17;29.08;;;11.60;;
3941;SDS011;1985;48.592;8.850;2024-01-10T06:21:43;23.70;;;10.70;;
3941;SDS011;1985;48.592;8.850;2024-01-10T06:24:09;26.17;;;10.57;;
3941;SDS011;1985;48.592;8.850;2024-01-10T06:26:34;26.30;;;12.30;;
3941;SDS011;1985;48.592;8.850;2024-01-10T06:29:00;28.70;;;12.53;;
3941;SDS011;1985;48.592;8.850;2024-01-10T06:31:26;28.63;;;12.40;;
3941;SDS011;1985;48.592;8.850;2024-01-10T06:33:51;28.08;;;11.60;;
3941;SDS011;1985;48.592;8.850;2024-01-10T06:36:17;30.25;;;11.27;;
3941;SDS011;1985;48.592;8.850;2024-01-10T06:38:43;25.23;;;12.40;;
3941;SDS011;1985;48.592;8.850;2024-01-10T06:41:09;22.95;;;10.30;;
3941;SDS011;1985;48.592;8.850;2024-01-10T06:43:38;25.95;;;11.68;;
3941;SDS011;1985;48.592;8.850;2024-01-10T06:46:03;28.02;;;12.20;;
3941;SDS011;1985;48.592;8.850;2024-01-10T06:48:29;25.90;;;11.50;;
3941;SDS011;1985;48.592;8.850;2024-01-10T06:50:56;28.13;;;11.98;;
3941;SDS011;1985;48.592;8.850;2024-01-10T06:53:22;25.50;;;11.43;;
3941;SDS011;1985;48.592;8.850;2024-01-10T06:55:47;28.47;;;12.57;;
3941;SDS011;1985;48.592;8.850;2024-01-10T06:58:13;31.23;;;12.97;;
3941;SDS011;1985;48.592;8.850;2024-01-10T07:00:39;29.47;;;12.30;;
3941;SDS011;1985;48.592;8.850;2024-01-10T07:03:05;27.17;;;11.93;;
3941;SDS011;1985;48.592;8.850;2024-01-10T07:05:30;26.10;;;11.70;;
3941;SDS011;1985;48.592;8.850;2024-01-10T07:07:59;27.47;;;13.07;;
3941;SDS011;1985;48.592;8.850;2024-01-10T07:10:28;26.05;;;11.98;;
3941;SDS011;1985;48.592;8.850;2024-01-10T07:12:54;25.77;;;11.80;;
3941;SDS011;1985;48.592;8.850;2024-01-10T07:15:20;30.30;;;12.43;;
3941;SDS011;1985;48.592;8.850;2024-01-10T07:17:46;31.67;;;13.25;;
3941;SDS011;1985;48.592;8.850;2024-01-10T07:20:12;27.83;;;12.52;;
3941;SDS011;1985;48.592;8.850;2024-01-10T07:22:38;34.22;;;13.35;;
3941;SDS011;1985;48.592;8.850;2024-01-10T07:25:09;29.48;;;12.27;;
3941;SDS011;1985;48.592;8.850;2024-01-10T07:27:39;27.27;;;12.30;;
3941;SDS011;1985;48.592;8.850;2024-01-10T07:30:07;28.05;;;11.98;;
3941;SDS011;1985;48.592;8.850;2024-01-10T07:32:43;28.33;;;12.82;;
3941;SDS011;1985;48.592;8.850;2024-01-10T07:35:10;29.98;;;13.05;;
3941;SDS011;1985;48.592;8.850;2024-01-10T07:37:36;26.58;;;12.30;;
3941;SDS011;1985;48.592;8.850;2024-01-10T07:40:03;32.97;;;13.27;;
3941;SDS011;1985;48.592;8.850;2024-01-10T07:42:35;24.85;;;11.63;;
3941;SDS011;1985;48.592;8.850;2024-01-10T07:45:01;27.93;;;11.70;;
3941;SDS011;1985;48.592;8.850;2024-01-10T07:47:30;26.17;;;12.40;;
3941;SDS011;1985;48.592;8.850;2024-01-10T07:49:56;29.25;;;13.77;;
3941;SDS011;1985;48.592;8.850;2024-01-10T07:52:22;103.32;;;43.60;;
3941;SDS011;1985;48.592;8.850;2024-01-10T07:54:48;68.70;;;32.00;;
3941;SDS011;1985;48.592;8.850;2024-01-10T07:57:14;72.50;;;33.50;;
3941;SDS011;1985;48.592;8.850;2024-01-10T07:59:39;67.03;;;31.80;;
3941;SDS011;1985;48.592;8.850;2024-01-10T08:02:05;61.80;;;29.67;;
3941;SDS011;1985;48.592;8.850;2024-01-10T08:04:32;41.90;;;18.05;;
3941;SDS011;1985;48.592;8.850;2024-01-10T08:06:57;35.83;;;15.55;;
3941;SDS011;1985;48.592;8.850;2024-01-10T08:09:23;30.73;;;14.55;;
3941;SDS011;1985;48.592;8.850;2024-01-10T08:11:49;38.28;;;16.42;;
3941;SDS011;1985;48.592;8.850;2024-01-10T08:14:15;33.03;;;15.57;;
3941;SDS011;1985;48.592;8.850;2024-01-10T08:16:41;34.25;;;14.90;;
3941;SDS011;1985;48.592;8.850;2024-01-10T08:19:08;38.15;;;15.43;;
3941;SDS011;1985;48.592;8.850;2024-01-10T08:21:33;34.22;;;15.63;;
3941;SDS011;1985;48.592;8.850;2024-01-10T08:24:00;37.77;;;15.80;;
3941;SDS011;1985;48.592;8.850;2024-01-10T08:26:27;37.08;;;17.35;;
3941;SDS011;1985;48.592;8.850;2024-01-10T08:28:53;31.50;;;14.50;;
3941;SDS011;1985;48.592;8.850;2024-01-10T08:31:19;38.55;;;17.13;;
3941;SDS011;1985;48.592;8.850;2024-01-10T08:33:45;35.20;;;16.90;;
3941;SDS011;1985;48.592;8.850;2024-01-10T08:36:11;36.70;;;17.35;;
3941;SDS011;1985;48.592;8.850;2024-01-10T08:38:39;37.22;;;18.10;;
3941;SDS011;1985;48.592;8.850;2024-01-10T08:41:07;35.93;;;17.37;;
3941;SDS011;1985;48.592;8.850;2024-01-10T08:43:37;35.88;;;16.30;;
3941;SDS011;1985;48.592;8.850;2024-01-10T08:46:03;33.70;;;15.80;;
3941;SDS011;1985;48.592;8.850;2024-01-10T08:48:29;32.55;;;16.58;;
3941;SDS011;1985;48.592;8.850;2024-01-10T08:50:54;39.90;;;16.90;;
3941;SDS011;1985;48.592;8.850;2024-01-10T08:53:21;37.10;;;15.90;;
3941;SDS011;1985;48.592;8.850;2024-01-10T08:55:47;39.08;;;17.13;;
3941;SDS011;1985;48.592;8.850;2024-01-10T08:58:13;40.72;;;18.88;;
3941;SDS011;1985;48.592;8.850;2024-01-10T09:00:39;39.92;;;20.00;;
3941;SDS011;1985;48.592;8.850;2024-01-10T09:03:05;42.07;;;20.93;;
3941;SDS011;1985;48.592;8.850;2024-01-10T09:05:31;32.95;;;15.55;;
3941;SDS011;1985;48.592;8.850;2024-01-10T09:07:57;35.15;;;16.17;;
3941;SDS011;1985;48.592;8.850;2024-01-10T09:10:23;39.10;;;19.63;;
3941;SDS011;1985;48.592;8.850;2024-01-10T09:12:49;43.47;;;21.05;;
3941;SDS011;1985;48.592;8.850;2024-01-10T09:15:15;37.77;;;16.97;;
3941;SDS011;1985;48.592;8.850;2024-01-10T09:17:43;40.72;;;18.88;;
3941;SDS011;1985;48.592;8.850;2024-01-10T09:20:10;42.05;;;19.58;;
3941;SDS011;1985;48.592;8.850;2024-01-10T09:22:39;34.30;;;18.05;;
3941;SDS011;1985;48.592;8.850;2024-01-10T09:25:05;36.97;;;17.73;;
3941;SDS011;1985;48.592;8.850;2024-01-10T09:27:32;41.00;;;19.27;;
3941;SDS011;1985;48.592;8.850;2024-01-10T09:30:01;40.38;;;17.67;;
3941;SDS011;1985;48.592;8.850;2024-01-10T09:32:27;40.40;;;18.42;;
3941;SDS011;1985;48.592;8.850;2024-01-10T09:34:56;38.40;;;18.27;;
3941;SDS011;1985;48.592;8.850;2024-01-10T09:37:23;35.40;;;17.52;;
3941;SDS011;1985;48.592;8.850;2024-01-10T09:39:49;35.57;;;16.93;;
3941;SDS011;1985;48.592;8.850;2024-01-10T09:42:14;38.00;;;17.33;;
3941;SDS011;1985;48.592;8.850;2024-01-10T09:44:41;39.73;;;19.07;;
3941;SDS011;1985;48.592;8.850;2024-01-10T09:47:07;34.78;;;17.48;;
3941;SDS011;1985;48.592;8.850;2024-01-10T09:49:34;32.88;;;16.83;;
3941;SDS011;1985;48.592;8.850;2024-01-10T09:51:59;38.47;;;18.02;;
3941;SDS011;1985;48.592;8.850;2024-01-10T09:54:30;39.83;;;17.25;;
3941;SDS011;1985;48.592;8.850;2024-01-10T09:56:58;37.67;;;17.35;;
3941;SDS011;1985;48.592;8.850;2024-01-10T09:59:24;39.38;;;18.60;;
3941;SDS011;1985;48.592;8.850;2024-01-10T10:01:51;38.60;;;17.40;;
3941;SDS011;1985;48.592;8.850;2024-01-10T10:04:17;39.58;;;17.58;;
3941;SDS011;1985;48.592;8.850;2024-01-10T10:06:45;34.78;;;16.60;;
3941;SDS011;1985;48.592;8.850;2024-01-10T10:09:12;42.20;;;18.77;;
3941;SDS011;1985;48.592;8.850;2024-01-10T10:11:39;39.28;;;16.70;;
3941;SDS011;1985;48.592;8.850;2024-01-10T10:14:15;37.60;;;17.08;;
3941;SDS011;1985;48.592;8.850;2024-01-10T10:16:43;35.60;;;17.13;;
3941;SDS011;1985;48.592;8.850;2024-01-10T10:19:09;36.53;;;17.05;;
3941;SDS011;1985;48.592;8.850;2024-01-10T10:21:36;37.25;;;17.35;;
3941;SDS011;1985;48.592;8.850;2024-01-10T10:24:04;37.30;;;17.47;;
3941;SDS011;1985;48.592;8.850;2024-01-10T10:26:32;38.80;;;18.13;;
3941;SDS011;1985;48.592;8.850;2024-01-10T10:28:59;37.42;;;18.00;;
3941;SDS011;1985;48.592;8.850;2024-01-10T10:31:25;35.58;;;18.65;;
3941;SDS011;1985;48.592;8.850;2024-01-10T10:33:51;37.80;;;19.50;;
3941;SDS011;1985;48.592;8.850;2024-01-10T10:36:20;37.08;;;17.27;;
3941;SDS011;1985;48.592;8.850;2024-01-10T10:38:46;33.87;;;17.17;;
3941;SDS011;1985;48.592;8.850;2024-01-10T10:41:15;40.55;;;18.80;;
3941;SDS011;1985;48.592;8.850;2024-01-10T10:43:41;35.58;;;19.88;;
3941;SDS011;1985;48.592;8.850;2024-01-10T10:46:08;37.00;;;18.02;;
3941;SDS011;1985;48.592;8.850;2024-01-10T10:48:35;36.30;;;18.07;;
3941;SDS011;1985;48.592;8.850;2024-01-10T10:53:59;36.23;;;18.20;;
3941;SDS011;1985;48.592;8.850;2024-01-10T10:56:26;39.40;;;19.02;;
3941;SDS011;1985;48.592;8.850;2024-01-10T10:58:56;36.45;;;19.30;;
3941;SDS011;1985;48.592;8.850;2024-01-10T11:01:22;40.67;;;19.95;;
3941;SDS011;1985;48.592;8.850;2024-01-10T11:03:49;38.05;;;19.33;;
3941;SDS011;1985;48.592;8.850;2024-01-10T11:06:14;36.03;;;17.77;;
3941;SDS011;1985;48.592;8.850;2024-01-10T11:08:44;40.42;;;19.52;;
3941;SDS011;1985;48.592;8.850;2024-01-10T11:11:57;41.42;;;19.50;;
3941;SDS011;1985;48.592;8.850;2024-01-10T11:24:55;39.90;;;19.27;;
3941;SDS011;1985;48.592;8.850;2024-01-10T11:27:21;38.47;;;19.63;;
3941;SDS011;1985;48.592;8.850;2024-01-10T11:29:47;47.05;;;20.38;;
3941;SDS011;1985;48.592;8.850;2024-01-10T11:32:14;49.03;;;20.27;;
3941;SDS011;1985;48.592;8.850;2024-01-10T11:34:54;41.47;;;19.38;;
3941;SDS011;1985;48.592;8.850;2024-01-10T11:37:21;39.83;;;19.50;;
3941;SDS011;1985;48.592;8.850;2024-01-10T11:39:46;41.45;;;19.50;;
3941;SDS011;1985;48.592;8.850;2024-01-10T11:42:21;43.22;;;20.42;;
3941;SDS011;1985;48.592;8.850;2024-01-10T11:45:05;41.80;;;20.10;;
3941;SDS011;1985;48.592;8.850;2024-01-10T11:47:32;41.35;;;19.75;;
3941;SDS011;1985;48.592;8.850;2024-01-10T11:49:58;44.13;;;21.15;;
3941;SDS011;1985;48.592;8.850;2024-01-10T11:52:32;38.60;;;19.80;;
3941;SDS011;1985;48.592;8.850;2024-01-10T11:54:59;38.70;;;20.02;;
3941;SDS011;1985;48.592;8.850;2024-01-10T11:57:26;41.63;;;20.58;;
3941;SDS011;1985;48.592;8.850;2024-01-10T11:59:53;40.95;;;20.45;;
3941;SDS011;1985;48.592;8.850;2024-01-10T12:02:20;40.70;;;20.85;;
3941;SDS011;1985;48.592;8.850;2024-01-10T12:04:48;40.08;;;20.90;;
3941;SDS011;1985;48.592;8.850;2024-01-10T12:07:15;40.92;;;20.55;;
3941;SDS011;1985;48.592;8.850;2024-01-10T12:09:41;40.40;;;20.35;;
3941;SDS011;1985;48.592;8.850;2024-01-10T12:12:07;41.13;;;19.73;;
3941;SDS011;1985;48.592;8.850;2024-01-10T12:14:34;38.55;;;19.65;;
3941;SDS011;1985;48.592;8.850;2024-01-10T12:17:00;36.60;;;18.33;;
3941;SDS011;1985;48.592;8.850;2024-01-10T12:19:26;41.08;;;20.00;;
3941;SDS011;1985;48.592;8.850;2024-01-10T12:21:52;43.15;;;19.88;;
3941;SDS011;1985;48.592;8.850;2024-01-10T12:24:18;37.60;;;19.50;;
3941;SDS011;1985;48.592;8.850;2024-01-10T12:26:45;42.75;;;20.42;;
3941;SDS011;1985;48.592;8.850;2024-01-10T12:29:11;42.30;;;20.10;;
3941;SDS011;1985;48.592;8.850;2024-01-10T12:31:37;40.92;;;20.33;;
3941;SDS011;1985;48.592;8.850;2024-01-10T12:34:07;37.72;;;20.30;;
3941;SDS011;1985;48.592;8.850;2024-01-10T12:36:34;41.55;;;19.10;;
3941;SDS011;1985;48.592;8.850;2024-01-10T12:39:00;36.50;;;18.40;;
3941;SDS011;1985;48.592;8.850;2024-01-10T12:41:26;41.63;;;20.60;;
3941;SDS011;1985;48.592;8.850;2024-01-10T12:43:55;43.17;;;20.73;;
3941;SDS011;1985;48.592;8.850;2024-01-10T12:46:21;36.20;;;19.38;;
3941;SDS011;1985;48.592;8.850;2024-01-10T12:49:10;40.25;;;20.63;;
3941;SDS011;1985;48.592;8.850;2024-01-10T12:51:34;41.13;;;20.83;;
3941;SDS011;1985;48.592;8.850;2024-01-10T12:54:03;38.55;;;20.00;;
3941;SDS011;1985;48.592;8.850;2024-01-10T12:56:29;37.90;;;20.30;;
3941;SDS011;1985;48.592;8.850;2024-01-10T12:58:55;40.10;;;20.77;;
3941;SDS011;1985;48.592;8.850;2024-01-10T13:01:22;38.13;;;20.17;;
3941;SDS011;1985;48.592;8.850;2024-01-10T13:03:48;41.93;;;20.47;;
3941;SDS011;1985;48.592;8.850;2024-01-10T13:06:14;44.17;;;20.42;;
3941;SDS011;1985;48.592;8.850;2024-01-10T13:08:41;41.00;;;20.58;;
3941;SDS011;1985;48.592;8.850;2024-01-10T13:11:07;36.57;;;20.07;;
3941;SDS011;1985;48.592;8.850;2024-01-10T13:13:37;39.25;;;20.83;;
3941;SDS011;1985;48.592;8.850;2024-01-10T13:16:03;35.80;;;19.73;;
3941;SDS011;1985;48.592;8.850;2024-01-10T13:18:29;40.75;;;20.23;;
3941;SDS011;1985;48.592;8.850;2024-01-10T13:20:55;37.85;;;19.00;;
3941;SDS011;1985;48.592;8.850;2024-01-10T13:23:21;37.65;;;18.30;;
3941;SDS011;1985;48.592;8.850;2024-01-10T13:25:48;38.15;;;19.67;;
3941;SDS011;1985;48.592;8.850;2024-01-10T13:28:14;37.60;;;19.83;;
3941;SDS011;1985;48.592;8.850;2024-01-10T13:30:40;35.45;;;18.75;;
3941;SDS011;1985;48.592;8.850;2024-01-10T13:33:08;36.60;;;19.00;;
3941;SDS011;1985;48.592;8.850;2024-01-10T13:35:34;43.15;;;19.65;;
3941;SDS011;1985;48.592;8.850;2024-01-10T13:38:00;44.70;;;19.40;;
3941;SDS011;1985;48.592;8.850;2024-01-10T13:40:26;37.63;;;19.42;;
3941;SDS011;1985;48.592;8.850;2024-01-10T13:42:52;39.78;;;19.23;;
3941;SDS011;1985;48.592;8.850;2024-01-10T13:45:18;38.92;;;18.85;;
3941;SDS011;1985;48.592;8.850;2024-01-10T13:47:45;34.15;;;18.98;;
3941;SDS011;1985;48.592;8.850;2024-01-10T13:50:11;40.70;;;19.67;;
3941;SDS011;1985;48.592;8.850;2024-01-10T13:52:38;38.35;;;19.73;;
3941;SDS011;1985;48.592;8.850;2024-01-10T13:55:04;41.03;;;18.80;;
3941;SDS011;1985;48.592;8.850;2024-01-10T13:57:30;37.40;;;19.42;;
3941;SDS011;1985;48.592;8.850;2024-01-10T13:59:57;39.03;;;18.30;;
3941;SDS011;1985;48.592;8.850;2024-01-10T14:02:23;36.00;;;18.73;;
3941;SDS011;1985;48.592;8.850;2024-01-10T14:04:49;43.03;;;20.37;;
3941;SDS011;1985;48.592;8.850;2024-01-10T14:07:16;41.38;;;20.75;;
3941;SDS011;1985;48.592;8.850;2024-01-10T14:09:42;37.92;;;20.40;;
3941;SDS011;1985;48.592;8.850;2024-01-10T14:12:08;43.50;;;20.77;;
3941;SDS011;1985;48.592;8.850;2024-01-10T14:14:33;41.42;;;19.55;;
3941;SDS011;1985;48.592;8.850;2024-01-10T14:16:59;43.85;;;20.75;;
3941;SDS011;1985;48.592;8.850;2024-01-10T14:19:25;44.90;;;22.60;;
3941;SDS011;1985;48.592;8.850;2024-01-10T14:21:51;44.90;;;20.60;;
3941;SDS011;1985;48.592;8.850;2024-01-10T14:24:17;42.58;;;21.38;;
3941;SDS011;1985;48.592;8.850;2024-01-10T14:26:43;34.83;;;18.95;;
3941;SDS011;1985;48.592;8.850;2024-01-10T14:29:09;44.30;;;21.47;;
3941;SDS011;1985;48.592;8.850;2024-01-10T14:31:35;43.80;;;21.33;;
3941;SDS011;1985;48.592;8.850;2024-01-10T14:34:02;45.30;;;21.05;;
3941;SDS011;1985;48.592;8.850;2024-01-10T14:36:28;39.58;;;18.38;;
3941;SDS011;1985;48.592;8.850;2024-01-10T14:38:54;40.63;;;20.15;;
3941;SDS011;1985;48.592;8.850;2024-01-10T14:41:22;44.08;;;19.48;;
3941;SDS011;1985;48.592;8.850;2024-01-10T14:43:48;42.70;;;19.93;;
3941;SDS011;1985;48.592;8.850;2024-01-10T14:46:14;37.80;;;19.48;;
3941;SDS011;1985;48.592;8.850;2024-01-10T14:48:40;37.50;;;19.40;;
3941;SDS011;1985;48.592;8.850;2024-01-10T14:51:05;37.27;;;19.57;;
3941;SDS011;1985;48.592;8.850;2024-01-10T14:53:31;41.55;;;20.23;;
3941;SDS011;1985;48.592;8.850;2024-01-10T14:56:00;49.90;;;21.63;;
3941;SDS011;1985;48.592;8.850;2024-01-10T14:58:26;41.90;;;19.70;;
3941;SDS011;1985;48.592;8.850;2024-01-10T15:00:51;60.10;;;30.37;;